Time;durP1;ratioP1;P1;durP2;ratioP2;P2;SDS_P1;SDS_P2;PMS_P1;PMS_P2;Temp;Humidity;BMP_temperature;BMP_pressure;BME280_temperature;BME280_humidity;BME280_pressure;Samples;Min_cycle;Max_cycle;Signal;HPM_P1;HPM_P2
2023/06/07 00:01:08;;;;;;;10.40;6.10;;;13.80;99.90;;;;;;5077658;28;20231;-77
2023/06/07 00:03:37;;;;;;;11.77;6.37;;;14.80;99.90;;;;;;5092388;28;20219;-75
2023/06/07 00:06:05;;;;;;;13.80;7.07;;;14.50;99.90;;;;;;5074265;28;20201;-77
2023/06/07 00:08:32;;;;;;;11.40;6.30;;;13.70;99.90;;;;;;5078160;28;20199;-75
2023/06/07 00:10:59;;;;;;;12.97;6.63;;;13.30;99.90;;;;;;5079530;28;20231;-75
2023/06/07 00:13:25;;;;;;;12.43;6.23;;;13.50;99.90;;;;;;5061113;28;20237;-75
2023/06/07 00:15:52;;;;;;;10.10;5.73;;;13.50;99.90;;;;;;5077758;28;20233;-76
2023/06/07 00:18:19;;;;;;;19.30;6.93;;;13.50;99.90;;;;;;5078185;28;20216;-75
2023/06/07 00:20:49;;;;;;;10.30;6.47;;;13.50;99.90;;;;;;5080095;28;20209;-76
2023/06/07 00:23:16;;;;;;;15.23;7.20;;;13.40;99.90;;;;;;5078459;28;20651;-75
2023/06/07 00:25:43;;;;;;;11.33;6.30;;;13.40;99.90;;;;;;5083461;28;20203;-76
2023/06/07 00:28:10;;;;;;;15.47;7.87;;;13.30;99.90;;;;;;5082062;28;20634;-77
2023/06/07 00:30:37;;;;;;;15.63;6.27;;;13.40;99.90;;;;;;5083981;28;20235;-76
2023/06/07 00:33:04;;;;;;;10.40;6.07;;;13.50;99.90;;;;;;5083555;28;20201;-75
2023/06/07 00:35:31;;;;;;;13.93;6.77;;;13.40;99.90;;;;;;5067403;28;20223;-76
2023/06/07 00:37:58;;;;;;;13.87;6.20;;;13.30;99.90;;;;;;5083291;28;20563;-77
2023/06/07 00:40:25;;;;;;;14.63;6.03;;;13.20;99.90;;;;;;5080049;28;20219;-75
2023/06/07 00:42:52;;;;;;;17.57;7.10;;;13.30;99.90;;;;;;5083854;28;20203;-76
2023/06/07 00:45:19;;;;;;;16.83;6.50;;;13.30;99.90;;;;;;5062016;28;20648;-74
2023/06/07 00:47:46;;;;;;;16.23;6.53;;;13.30;99.90;;;;;;5079661;28;20235;-74
2023/06/07 00:50:14;;;;;;;17.33;6.70;;;13.30;99.90;;;;;;5084014;28;20203;-75
2023/06/07 00:52:41;;;;;;;14.83;6.40;;;13.10;99.90;;;;;;5083202;28;20274;-76
2023/06/07 00:55:08;;;;;;;12.63;6.37;;;13.50;99.90;;;;;;5079619;28;20231;-75
2023/06/07 00:57:36;;;;;;;13.97;6.77;;;13.20;99.90;;;;;;5088000;28;20192;-75
2023/06/07 01:00:06;;;;;;;11.17;5.70;;;13.10;99.90;;;;;;5077116;28;20204;-74
2023/06/07 01:02:34;;;;;;;15.00;5.77;;;13.10;99.90;;;;;;5077625;28;20212;-75
2023/06/07 01:05:02;;;;;;;14.13;6.50;;;13.10;99.90;;;;;;5083032;28;20295;-75
2023/06/07 01:07:29;;;;;;;11.73;5.70;;;13.00;99.90;;;;;;5087201;28;20203;-75
2023/06/07 01:09:56;;;;;;;9.73;5.77;;;13.00;99.90;;;;;;5077594;28;20600;-75
2023/06/07 01:12:24;;;;;;;13.63;7.87;;;13.00;99.90;;;;;;5079065;28;20275;-76
2023/06/07 01:14:52;;;;;;;13.77;6.07;;;12.90;99.90;;;;;;5079841;28;20857;-75
2023/06/07 01:17:24;;;;;;;15.30;6.03;;;13.00;99.90;;;;;;5079184;28;20592;-75
2023/06/07 01:19:53;;;;;;;14.40;6.60;;;12.90;99.90;;;;;;5078926;28;20213;-76
2023/06/07 01:22:24;;;;;;;12.97;6.40;;;12.80;99.90;;;;;;5085223;28;20206;-76
2023/06/07 01:24:52;;;;;;;13.30;6.37;;;12.80;99.90;;;;;;5078770;28;20665;-76
2023/06/07 01:27:21;;;;;;;13.67;6.57;;;12.70;99.90;;;;;;5083982;28;20215;-76
2023/06/07 01:29:50;;;;;;;10.77;6.37;;;12.70;99.90;;;;;;5077299;28;20236;-74
2023/06/07 01:32:18;;;;;;;14.03;7.30;;;12.60;99.90;;;;;;5079335;28;20245;-75
2023/06/07 01:34:47;;;;;;;18.73;6.17;;;12.50;99.90;;;;;;5077714;28;20281;-75
2023/06/07 01:37:14;;;;;;;13.20;6.57;;;12.70;99.90;;;;;;5085355;28;20203;-76
2023/06/07 01:39:42;;;;;;;12.97;6.43;;;12.60;99.90;;;;;;5079884;28;20212;-74
2023/06/07 01:42:12;;;;;;;14.07;6.37;;;12.50;99.90;;;;;;5081524;28;20207;-75
2023/06/07 01:44:41;;;;;;;12.70;6.43;;;12.50;99.90;;;;;;5058592;28;20242;-75
2023/06/07 01:47:09;;;;;;;12.77;6.63;;;12.50;99.90;;;;;;5094725;28;20330;-75
2023/06/07 01:49:35;;;;;;;16.40;7.03;;;12.40;99.90;;;;;;5076240;28;20215;-75
2023/06/07 01:52:02;;;;;;;10.33;6.57;;;12.40;99.90;;;;;;5062271;28;20199;-75
2023/06/07 01:54:29;;;;;;;17.10;6.87;;;12.50;99.90;;;;;;5077497;28;20223;-75
2023/06/07 01:57:11;;;;;;;15.37;6.57;;;12.40;99.90;;;;;;5099532;28;20211;-77
2023/06/07 02:00:01;;;;;;;10.43;5.63;;;12.40;99.90;;;;;;5078465;28;20213;-75
2023/06/07 02:02:37;;;;;;;11.53;6.10;;;12.40;99.90;;;;;;5081613;28;20219;-75
2023/06/07 02:05:11;;;;;;;16.90;6.80;;;12.30;99.90;;;;;;5079775;28;20233;-76
2023/06/07 02:07:51;;;;;;;13.37;5.93;;;12.30;99.90;;;;;;5081054;28;20252;-77
2023/06/07 02:10:21;;;;;;;16.97;6.90;;;12.30;99.90;;;;;;5079979;28;20234;-76
2023/06/07 02:12:51;;;;;;;14.90;6.73;;;12.20;99.90;;;;;;5060419;28;20206;-75
2023/06/07 02:15:21;;;;;;;17.10;6.83;;;12.20;99.90;;;;;;5084264;28;20245;-75
2023/06/07 02:17:58;;;;;;;11.43;6.87;;;12.20;99.90;;;;;;5083090;28;20749;-75
2023/06/07 02:20:27;;;;;;;15.20;6.30;;;12.20;99.90;;;;;;5082013;28;20207;-75
2023/06/07 02:22:56;;;;;;;13.10;7.07;;;12.20;99.90;;;;;;5080536;28;20631;-75
2023/06/07 02:25:23;;;;;;;15.27;6.37;;;12.10;99.90;;;;;;5076536;28;20200;-76
2023/06/07 02:27:51;;;;;;;12.73;5.80;;;12.10;99.90;;;;;;5082638;28;20204;-74
2023/06/07 02:30:18;;;;;;;12.60;6.17;;;12.10;99.90;;;;;;5075736;28;20625;-75
2023/06/07 02:32:53;;;;;;;12.63;6.07;;;12.20;99.90;;;;;;5079592;28;20227;-75
2023/06/07 02:35:21;;;;;;;14.00;6.63;;;12.10;99.90;;;;;;5080687;28;20231;-75
2023/06/07 02:37:48;;;;;;;13.50;5.83;;;12.20;99.90;;;;;;5080307;28;20245;-76
2023/06/07 02:40:15;;;;;;;15.90;6.30;;;12.10;99.90;;;;;;5079543;28;20274;-74
2023/06/07 02:42:48;;;;;;;10.23;5.40;;;12.10;99.90;;;;;;5080217;28;20268;-76
2023/06/07 02:45:15;;;;;;;16.17;6.03;;;12.10;99.90;;;;;;5075409;28;20295;-75
2023/06/07 02:47:43;;;;;;;16.27;7.10;;;12.10;99.90;;;;;;5077150;28;20703;-76
2023/06/07 02:50:10;;;;;;;13.53;6.23;;;12.10;99.90;;;;;;5081129;28;20194;-75
2023/06/07 02:52:37;;;;;;;11.67;6.63;;;12.10;99.90;;;;;;5073020;28;20219;-76
2023/06/07 02:55:04;;;;;;;10.33;6.03;;;12.10;99.90;;;;;;5084747;28;20230;-75
2023/06/07 02:57:31;;;;;;;14.10;5.90;;;12.10;99.90;;;;;;5087824;28;20198;-76
2023/06/07 02:59:59;;;;;;;12.10;5.63;;;12.10;99.90;;;;;;5077841;28;20205;-75
2023/06/07 03:02:27;;;;;;;16.53;5.97;;;12.10;99.90;;;;;;5075330;28;20250;-78
2023/06/07 03:04:56;;;;;;;11.97;6.00;;;12.10;99.90;;;;;;5095587;28;20199;-75
2023/06/07 03:07:23;;;;;;;11.50;5.73;;;12.10;99.90;;;;;;5079128;28;20209;-75
2023/06/07 03:09:51;;;;;;;14.20;6.23;;;12.00;99.90;;;;;;5061670;28;20532;-74
2023/06/07 03:12:18;;;;;;;16.17;6.87;;;12.00;99.90;;;;;;5081033;28;20260;-76
2023/06/07 03:14:45;;;;;;;14.70;7.17;;;12.00;99.90;;;;;;5056843;28;20281;-75
2023/06/07 03:17:12;;;;;;;11.63;5.93;;;12.00;99.90;;;;;;5056047;28;20219;-76
2023/06/07 03:19:38;;;;;;;11.33;5.47;;;12.00;99.90;;;;;;5072382;28;20299;-73
2023/06/07 03:22:06;;;;;;;15.00;6.67;;;12.00;99.90;;;;;;5077359;28;20206;-77
2023/06/07 03:24:36;;;;;;;13.97;6.90;;;12.00;99.90;;;;;;5076220;28;20204;-76
2023/06/07 03:27:08;;;;;;;13.90;5.97;;;12.00;99.90;;;;;;5083423;28;20202;-76
2023/06/07 03:29:35;;;;;;;15.67;6.17;;;12.00;99.90;;;;;;5078332;28;20204;-76
2023/06/07 03:32:05;;;;;;;12.93;5.77;;;11.90;99.90;;;;;;5077188;28;20591;-74
2023/06/07 03:34:35;;;;;;;16.07;6.27;;;11.90;99.90;;;;;;5077574;28;20365;-74
2023/06/07 03:37:01;;;;;;;10.27;5.83;;;11.90;99.90;;;;;;5070987;28;20540;-75
2023/06/07 03:39:28;;;;;;;11.70;6.10;;;12.00;99.90;;;;;;5077699;28;20202;-76
2023/06/07 03:41:55;;;;;;;13.43;6.10;;;12.00;99.90;;;;;;5082752;28;20282;-75
2023/06/07 03:44:22;;;;;;;13.83;5.77;;;12.00;99.90;;;;;;5079892;28;20207;-75
2023/06/07 03:46:48;;;;;;;11.60;5.97;;;12.00;99.90;;;;;;5076692;28;20267;-75
2023/06/07 03:49:15;;;;;;;13.03;6.37;;;12.00;99.90;;;;;;5060113;28;20208;-75
2023/06/07 03:51:43;;;;;;;12.37;5.60;;;12.10;99.90;;;;;;5075641;28;20210;-77
2023/06/07 03:54:10;;;;;;;21.10;6.40;;;12.10;99.90;;;;;;5085855;28;20257;-75
2023/06/07 03:56:37;;;;;;;15.10;7.07;;;12.10;99.90;;;;;;5100846;28;20265;-76
2023/06/07 03:59:04;;;;;;;14.13;6.47;;;12.10;99.90;;;;;;5088224;28;20206;-74
2023/06/07 04:01:30;;;;;;;10.67;6.30;;;12.10;99.90;;;;;;5067469;28;20221;-74
2023/06/07 04:03:57;;;;;;;15.37;6.17;;;12.10;99.90;;;;;;5080708;28;20207;-76
2023/06/07 04:06:24;;;;;;;11.50;6.17;;;12.10;99.90;;;;;;5086725;28;20297;-77
2023/06/07 04:08:59;;;;;;;12.07;5.80;;;12.20;99.90;;;;;;5080835;28;20204;-77
2023/06/07 04:11:26;;;;;;;10.20;5.97;;;12.20;99.90;;;;;;5064248;28;20702;-75
2023/06/07 04:13:53;;;;;;;17.00;7.50;;;12.20;99.90;;;;;;5086308;28;20250;-78
2023/06/07 04:16:20;;;;;;;13.63;6.60;;;12.20;99.90;;;;;;5063323;28;20235;-75
2023/06/07 04:18:47;;;;;;;13.70;6.20;;;12.20;99.90;;;;;;5084370;28;20215;-73
2023/06/07 04:21:14;;;;;;;14.90;7.13;;;12.20;99.90;;;;;;5077151;28;20269;-75
2023/06/07 04:23:41;;;;;;;13.17;6.73;;;12.20;99.90;;;;;;5079732;28;20252;-75
2023/06/07 04:26:08;;;;;;;17.27;6.70;;;12.20;99.90;;;;;;5080608;28;20222;-76
2023/06/07 04:28:35;;;;;;;20.37;7.30;;;12.30;99.90;;;;;;5068238;28;20278;-75
2023/06/07 04:31:02;;;;;;;14.20;6.83;;;12.30;99.90;;;;;;5056807;28;20231;-76
2023/06/07 04:33:29;;;;;;;18.73;7.77;;;12.30;99.90;;;;;;5085314;28;20206;-76
2023/06/07 04:35:58;;;;;;;19.93;7.03;;;12.40;99.90;;;;;;5084915;28;20723;-77
2023/06/07 04:38:25;;;;;;;16.57;7.50;;;12.40;99.90;;;;;;5086844;28;20620;-78
2023/06/07 04:40:53;;;;;;;17.17;8.17;;;12.40;99.90;;;;;;5069131;28;20231;-76
2023/06/07 04:43:20;;;;;;;17.67;8.23;;;12.50;99.90;;;;;;5081044;28;20215;-75
2023/06/07 04:45:54;;;;;;;16.77;8.23;;;12.40;99.90;;;;;;5076225;28;20271;-75
2023/06/07 04:48:25;;;;;;;20.43;8.60;;;12.60;99.90;;;;;;5078373;28;20788;-77
2023/06/07 04:50:54;;;;;;;18.47;8.17;;;12.60;99.90;;;;;;5080826;28;20203;-75
2023/06/07 04:53:21;;;;;;;17.37;8.50;;;12.70;99.90;;;;;;5077263;28;20254;-74
2023/06/07 04:55:48;;;;;;;19.00;8.30;;;12.80;99.90;;;;;;5071206;28;20230;-75
2023/06/07 04:58:16;;;;;;;18.13;7.80;;;12.90;99.90;;;;;;5085674;28;20265;-74
2023/06/07 05:00:43;;;;;;;22.37;7.43;;;12.90;99.90;;;;;;5086424;28;20269;-77
2023/06/07 05:03:21;;;;;;;14.77;7.00;;;13.10;99.90;;;;;;5062187;28;20268;-76
2023/06/07 05:05:49;;;;;;;18.27;8.13;;;13.10;99.90;;;;;;5078754;28;20743;-75
2023/06/07 05:08:16;;;;;;;18.67;7.00;;;13.20;99.90;;;;;;5097176;28;20220;-75
2023/06/07 05:10:43;;;;;;;12.50;7.00;;;13.30;99.90;;;;;;5078768;28;20810;-76
2023/06/07 05:13:10;;;;;;;16.13;7.13;;;13.50;99.90;;;;;;5085557;28;20236;-75
2023/06/07 05:15:37;;;;;;;13.87;6.67;;;13.70;99.90;;;;;;5078579;28;20627;-76
2023/06/07 05:18:05;;;;;;;15.07;7.20;;;13.90;99.90;;;;;;5083197;28;20675;-76
2023/06/07 05:20:33;;;;;;;14.03;6.93;;;14.10;99.90;;;;;;5082195;28;20200;-76
2023/06/07 05:23:00;;;;;;;18.33;7.57;;;14.30;99.90;;;;;;5076533;28;20207;-74
2023/06/07 05:25:26;;;;;;;15.97;6.97;;;14.50;99.90;;;;;;5084048;28;20624;-74
2023/06/07 05:27:53;;;;;;;18.10;7.27;;;14.80;99.90;;;;;;5084546;28;20196;-74
2023/06/07 05:30:38;;;;;;;15.03;6.33;;;15.00;99.90;;;;;;5067621;28;20295;-76
2023/06/07 05:33:06;;;;;;;22.77;7.50;;;15.30;99.90;;;;;;5088510;28;20200;-75
2023/06/07 05:35:32;;;;;;;12.97;6.93;;;15.30;99.90;;;;;;5087066;28;20262;-75
2023/06/07 05:37:59;;;;;;;18.37;7.40;;;15.40;99.90;;;;;;5067507;28;20196;-75
2023/06/07 05:40:26;;;;;;;15.33;7.40;;;15.40;99.90;;;;;;5087648;28;20207;-75
2023/06/07 05:42:56;;;;;;;11.00;7.07;;;15.50;99.90;;;;;;5067808;28;20211;-76
2023/06/07 05:45:23;;;;;;;16.97;6.77;;;15.70;99.90;;;;;;5079424;28;20209;-75
2023/06/07 05:47:50;;;;;;;15.07;6.70;;;15.70;99.90;;;;;;5082770;28;20261;-75
2023/06/07 05:50:20;;;;;;;15.47;6.03;;;16.00;99.90;;;;;;5079749;28;20192;-75
2023/06/07 05:52:56;;;;;;;13.43;6.77;;;15.90;99.90;;;;;;5079570;28;20209;-74
2023/06/07 05:55:27;;;;;;;14.37;6.80;;;15.70;99.90;;;;;;5082073;28;20224;-76
2023/06/07 05:57:57;;;;;;;17.17;6.97;;;15.60;99.90;;;;;;5084758;28;20226;-76
2023/06/07 06:00:23;;;;;;;15.10;6.73;;;15.40;99.90;;;;;;5078908;28;20192;-76
2023/06/07 06:02:52;;;;;;;12.70;6.90;;;15.40;99.90;;;;;;5065852;28;20719;-77
2023/06/07 06:05:27;;;;;;;15.60;7.30;;;15.20;99.90;;;;;;5082624;28;20232;-77
2023/06/07 06:07:56;;;;;;;16.07;6.80;;;15.30;99.90;;;;;;5085173;28;20701;-76
2023/06/07 06:10:24;;;;;;;12.27;6.77;;;15.30;99.90;;;;;;5084406;28;20245;-78
2023/06/07 06:12:51;;;;;;;13.93;6.37;;;15.40;99.90;;;;;;5088004;28;20216;-76
2023/06/07 06:15:18;;;;;;;15.77;6.30;;;15.50;99.90;;;;;;5080011;28;20220;-75
2023/06/07 06:17:45;;;;;;;14.03;5.97;;;15.50;99.90;;;;;;5076199;28;20205;-75
2023/06/07 06:20:12;;;;;;;14.33;6.50;;;15.40;99.90;;;;;;5074537;28;20259;-75
2023/06/07 06:22:39;;;;;;;14.53;7.13;;;15.30;99.90;;;;;;5081041;28;20240;-76
2023/06/07 06:25:06;;;;;;;13.63;7.03;;;15.30;99.90;;;;;;5074293;28;20645;-77
2023/06/07 06:27:33;;;;;;;12.00;5.83;;;15.30;99.90;;;;;;5081193;28;20261;-75
2023/06/07 06:30:00;;;;;;;12.03;6.00;;;15.30;99.90;;;;;;5061980;28;20201;-75
2023/06/07 06:32:26;;;;;;;12.83;5.63;;;15.30;99.90;;;;;;5076271;28;20216;-74
2023/06/07 06:34:53;;;;;;;14.13;5.77;;;15.30;99.90;;;;;;5076816;28;20242;-76
2023/06/07 06:37:20;;;;;;;12.40;5.77;;;15.60;99.90;;;;;;5078186;28;20238;-75
2023/06/07 06:39:47;;;;;;;10.63;5.70;;;15.40;99.90;;;;;;5079877;28;20206;-74
2023/06/07 06:42:14;;;;;;;11.97;5.37;;;15.60;99.90;;;;;;5079294;28;20214;-75
2023/06/07 06:44:41;;;;;;;9.67;4.60;;;15.60;99.90;;;;;;5079735;28;20196;-75
2023/06/07 06:47:07;;;;;;;11.90;5.07;;;15.70;99.90;;;;;;5078684;28;20224;-74
2023/06/07 06:49:34;;;;;;;12.43;5.00;;;15.80;99.90;;;;;;5076704;28;20207;-75
2023/06/07 06:52:01;;;;;;;17.63;5.70;;;15.80;99.90;;;;;;5063186;28;20254;-75
2023/06/07 06:54:28;;;;;;;11.73;5.30;;;16.10;99.90;;;;;;5067706;28;20226;-75
2023/06/07 06:56:55;;;;;;;9.80;5.37;;;16.20;99.90;;;;;;5083516;28;20259;-76
2023/06/07 06:59:21;;;;;;;12.27;5.43;;;16.30;99.90;;;;;;5060338;28;20269;-76
2023/06/07 07:01:48;;;;;;;12.53;5.80;;;16.20;99.90;;;;;;5061262;28;20216;-75
2023/06/07 07:04:16;;;;;;;9.20;4.90;;;16.30;99.90;;;;;;5080282;28;20631;-78
2023/06/07 07:06:44;;;;;;;12.90;5.67;;;16.40;99.90;;;;;;5064939;28;20215;-76
2023/06/07 07:09:12;;;;;;;12.20;4.78;;;16.40;99.90;;;;;;5084034;28;20211;-76
2023/06/07 07:11:39;;;;;;;12.00;5.35;;;16.80;99.90;;;;;;5078002;28;20228;-76
2023/06/07 07:14:06;;;;;;;16.50;5.63;;;17.00;99.90;;;;;;5079376;28;20734;-76
2023/06/07 07:16:33;;;;;;;11.55;4.43;;;17.20;99.90;;;;;;5084379;28;20311;-75
2023/06/07 07:19:04;;;;;;;12.48;5.07;;;17.40;99.90;;;;;;5062447;28;20208;-74
2023/06/07 07:21:31;;;;;;;13.45;5.45;;;17.60;99.90;;;;;;5079383;28;20208;-74
2023/06/07 07:23:58;;;;;;;11.23;5.15;;;17.80;99.90;;;;;;5081526;28;20290;-75
2023/06/07 07:26:26;;;;;;;12.48;5.25;;;17.90;99.90;;;;;;5060651;28;20203;-75
2023/06/07 07:28:53;;;;;;;14.93;5.65;;;18.00;99.90;;;;;;5083034;28;20328;-77
2023/06/07 07:31:21;;;;;;;14.25;5.40;;;17.90;99.90;;;;;;5091213;28;20254;-77
2023/06/07 07:33:48;;;;;;;9.55;4.95;;;18.20;99.90;;;;;;5090115;28;20286;-75
2023/06/07 07:36:17;;;;;;;13.70;5.10;;;18.40;99.90;;;;;;5081568;28;20556;-78
2023/06/07 07:38:45;;;;;;;12.00;4.80;;;18.50;99.90;;;;;;5070633;28;20200;-75
2023/06/07 07:41:14;;;;;;;12.55;4.82;;;18.70;99.90;;;;;;5065978;28;20359;-75
2023/06/07 07:43:41;;;;;;;9.25;4.35;;;18.50;99.90;;;;;;5069465;28;20251;-75
2023/06/07 07:46:08;;;;;;;8.48;4.50;;;18.60;99.90;;;;;;5082882;28;20228;-74
2023/06/07 07:48:35;;;;;;;17.20;5.10;;;18.70;99.90;;;;;;5088937;28;20192;-75
2023/06/07 07:51:03;;;;;;;12.82;4.50;;;18.80;99.90;;;;;;5101151;28;20894;-76
2023/06/07 07:53:29;;;;;;;12.23;4.40;;;18.90;99.90;;;;;;5068749;28;20208;-75
2023/06/07 07:55:56;;;;;;;11.13;4.38;;;18.90;99.90;;;;;;5089614;28;20628;-75
2023/06/07 07:58:25;;;;;;;10.32;4.45;;;18.90;99.90;;;;;;5084899;28;20236;-74
2023/06/07 08:00:52;;;;;;;9.43;4.47;;;19.00;99.90;;;;;;5084445;28;20223;-76
2023/06/07 08:03:19;;;;;;;9.68;4.28;;;19.10;99.90;;;;;;5083202;28;20636;-75
2023/06/07 08:05:47;;;;;;;6.65;3.80;;;19.10;99.90;;;;;;5068081;28;20625;-76
2023/06/07 08:08:16;;;;;;;11.68;4.18;;;19.30;99.90;;;;;;5081688;28;20216;-77
2023/06/07 08:10:44;;;;;;;10.18;4.07;;;19.70;99.90;;;;;;5084351;28;20290;-75
2023/06/07 08:13:11;;;;;;;10.65;3.92;;;20.20;99.90;;;;;;5081763;28;20656;-75
2023/06/07 08:15:38;;;;;;;10.27;4.43;;;20.70;99.90;;;;;;5069631;28;20684;-76
2023/06/07 08:18:05;;;;;;;8.43;3.75;;;21.10;99.90;;;;;;5079065;28;20208;-77
2023/06/07 08:20:32;;;;;;;12.20;5.05;;;21.30;99.90;;;;;;5086565;28;20648;-76
2023/06/07 08:22:59;;;;;;;8.45;3.72;;;21.70;99.90;;;;;;5081833;28;20234;-76
2023/06/07 08:25:26;;;;;;;10.95;4.28;;;21.70;99.90;;;;;;5082004;28;20200;-75
2023/06/07 08:27:53;;;;;;;9.07;3.58;;;22.00;99.90;;;;;;5062643;28;20261;-77
2023/06/07 08:30:20;;;;;;;8.63;4.15;;;22.30;99.90;;;;;;5078085;28;20212;-76
2023/06/07 08:32:47;;;;;;;9.18;3.70;;;22.60;99.90;;;;;;5079180;28;20250;-76
2023/06/07 08:35:14;;;;;;;7.85;3.80;;;22.80;99.90;;;;;;5081203;28;20197;-78
2023/06/07 08:37:41;;;;;;;9.57;3.83;;;23.20;99.90;;;;;;5079678;28;20240;-75
2023/06/07 08:40:09;;;;;;;12.70;4.53;;;23.40;99.90;;;;;;5079587;28;20648;-76
2023/06/07 08:42:38;;;;;;;13.73;3.97;;;23.40;99.90;;;;;;5078969;28;20211;-76
2023/06/07 08:45:05;;;;;;;9.18;4.20;;;23.60;99.90;;;;;;5079981;28;20200;-77
2023/06/07 08:47:34;;;;;;;10.30;3.70;;;23.70;99.90;;;;;;5078134;28;20256;-76
2023/06/07 08:50:02;;;;;;;6.78;3.97;;;23.80;99.90;;;;;;5083944;28;20205;-79
2023/06/07 08:52:39;;;;;;;10.73;3.88;;;24.00;99.90;;;;;;5079678;28;20423;-76
2023/06/07 08:55:11;;;;;;;10.38;4.13;;;24.40;99.90;;;;;;5049366;28;20199;-76
2023/06/07 08:57:39;;;;;;;7.60;4.22;;;24.30;99.90;;;;;;5083564;28;20232;-76
2023/06/07 09:00:08;;;;;;;7.28;4.30;;;24.50;99.90;;;;;;5077036;28;20302;-76
2023/06/07 09:02:37;;;;;;;13.35;4.38;;;24.50;99.90;;;;;;5049822;28;20322;-76
2023/06/07 09:05:06;;;;;;;9.57;4.32;;;24.90;99.90;;;;;;5080741;28;20296;-76
2023/06/07 09:07:33;;;;;;;9.45;5.10;;;24.90;99.90;;;;;;5063345;28;20679;-77
2023/06/07 09:10:00;;;;;;;8.45;4.35;;;24.80;99.90;;;;;;5061643;28;20560;-77
2023/06/07 09:12:28;;;;;;;12.18;5.18;;;24.50;99.90;;;;;;5061893;28;20327;-80
2023/06/07 09:14:56;;;;;;;13.25;5.07;;;24.10;99.90;;;;;;5078951;28;20549;-77
2023/06/07 09:17:23;;;;;;;8.52;5.15;;;24.00;99.90;;;;;;5069583;28;20247;-76
2023/06/07 09:19:50;;;;;;;12.80;5.05;;;23.90;99.90;;;;;;5083509;28;20199;-77
2023/06/07 09:22:23;;;;;;;11.20;4.63;;;23.90;99.90;;;;;;5076756;28;20212;-77
2023/06/07 09:24:50;;;;;;;10.63;5.15;;;24.40;99.90;;;;;;5065933;28;20302;-76
2023/06/07 09:27:31;;;;;;;11.20;4.72;;;24.10;99.90;;;;;;5067930;28;20839;-77
2023/06/07 09:30:05;;;;;;;11.88;4.88;;;24.10;99.90;;;;;;5060005;28;20632;-77
2023/06/07 09:32:37;;;;;;;8.27;4.63;;;24.20;99.90;;;;;;5084726;28;20215;-77
2023/06/07 09:35:15;;;;;;;8.77;4.65;;;24.30;99.90;;;;;;5082688;28;20215;-77
2023/06/07 09:37:46;;;;;;;11.77;5.07;;;24.10;99.90;;;;;;5079131;28;20243;-76
2023/06/07 09:40:15;;;;;;;9.10;4.38;;;24.00;99.90;;;;;;5077808;28;20230;-77
2023/06/07 09:42:43;;;;;;;9.13;5.10;;;23.90;99.90;;;;;;5061478;28;20216;-76
2023/06/07 09:45:17;;;;;;;7.32;4.40;;;23.90;99.90;;;;;;5077043;28;20248;-77
2023/06/07 09:47:45;;;;;;;10.05;4.57;;;24.00;99.90;;;;;;5080043;28;20238;-76
2023/06/07 09:50:13;;;;;;;9.73;4.30;;;24.30;99.90;;;;;;5064184;28;20208;-77
2023/06/07 09:52:40;;;;;;;8.20;4.47;;;24.40;99.90;;;;;;5078624;28;20514;-76
2023/06/07 09:55:08;;;;;;;12.00;4.82;;;24.60;99.90;;;;;;5078216;28;20196;-76
2023/06/07 09:57:37;;;;;;;12.93;4.78;;;24.70;99.90;;;;;;5069285;28;20215;-78
2023/06/07 10:00:17;;;;;;;11.35;5.10;;;24.70;99.90;;;;;;5075261;28;20582;-77
2023/06/07 10:02:46;;;;;;;7.57;4.72;;;24.70;99.90;;;;;;5058905;28;20219;-78
2023/06/07 10:05:15;;;;;;;9.48;4.95;;;24.60;99.90;;;;;;5066515;28;20198;-78
2023/06/07 10:07:45;;;;;;;10.75;4.90;;;24.60;99.90;;;;;;5059850;28;20274;-77
2023/06/07 10:10:14;;;;;;;10.13;4.72;;;24.70;99.90;;;;;;5078699;28;20253;-76
2023/06/07 10:12:43;;;;;;;10.85;5.28;;;24.80;99.90;;;;;;5081006;28;20327;-76
2023/06/07 10:15:18;;;;;;;11.63;5.55;;;24.80;99.90;;;;;;5080190;28;20232;-77
2023/06/07 10:18:12;;;;;;;8.68;5.10;;;24.70;99.90;;;;;;5075598;28;20238;-77
2023/06/07 10:20:43;;;;;;;9.25;4.75;;;24.70;99.90;;;;;;5081976;28;20227;-77
2023/06/07 10:23:18;;;;;;;9.73;5.15;;;24.90;99.90;;;;;;5078565;28;20200;-77
2023/06/07 10:25:57;;;;;;;13.75;5.47;;;24.70;99.90;;;;;;5080157;28;20200;-76
2023/06/07 10:28:36;;;;;;;11.40;4.90;;;24.90;99.90;;;;;;5057376;28;20254;-76
2023/06/07 10:31:08;;;;;;;11.63;4.90;;;25.00;99.90;;;;;;5076565;28;20219;-77
2023/06/07 10:33:36;;;;;;;10.88;5.07;;;25.00;99.90;;;;;;5074900;28;20262;-77
2023/06/07 10:36:06;;;;;;;12.65;5.13;;;25.00;99.90;;;;;;5077465;28;20285;-77
2023/06/07 10:38:34;;;;;;;8.27;4.80;;;25.00;99.90;;;;;;5062974;28;20752;-77
2023/06/07 10:41:03;;;;;;;9.40;4.70;;;25.00;99.90;;;;;;5065811;28;20227;-76
2023/06/07 10:43:31;;;;;;;9.18;4.45;;;24.90;99.90;;;;;;5078857;28;20227;-78
2023/06/07 10:46:20;;;;;;;8.80;4.80;;;24.90;99.90;;;;;;5076411;28;20282;-76
2023/06/07 10:48:50;;;;;;;10.60;5.20;;;24.90;99.90;;;;;;5064124;28;20211;-77
2023/06/07 10:51:38;;;;;;;10.45;5.63;;;24.90;99.90;;;;;;5057344;28;20715;-77
2023/06/07 10:54:05;;;;;;;15.68;6.15;;;24.80;99.90;;;;;;5079451;28;20303;-77
2023/06/07 10:56:33;;;;;;;8.20;5.10;;;25.00;99.90;;;;;;5073932;28;20315;-78
2023/06/07 10:59:12;;;;;;;11.60;6.00;;;24.90;99.90;;;;;;5079302;28;20283;-77
2023/06/07 11:01:41;;;;;;;12.07;5.25;;;24.80;99.90;;;;;;5077549;28;20230;-77
2023/06/07 11:04:40;;;;;;;12.23;5.38;;;24.90;99.90;;;;;;5057475;28;20250;-77
2023/06/07 11:07:30;;;;;;;9.95;5.03;;;24.90;99.90;;;;;;5080321;28;20209;-77
2023/06/07 11:10:02;;;;;;;12.68;5.28;;;25.10;99.90;;;;;;5068821;28;20243;-78
2023/06/07 11:12:34;;;;;;;12.00;5.38;;;25.20;99.90;;;;;;5077870;28;20663;-76
2023/06/07 11:15:17;;;;;;;11.15;5.22;;;25.30;99.90;;;;;;5066223;28;20600;-77
2023/06/07 11:17:59;;;;;;;10.73;5.97;;;25.40;99.90;;;;;;5083442;28;20243;-77
2023/06/07 11:20:38;;;;;;;9.45;5.15;;;25.70;99.90;;;;;;5061431;28;20211;-76
2023/06/07 11:23:21;;;;;;;10.85;5.40;;;25.50;99.90;;;;;;5069337;28;20216;-77
2023/06/07 11:26:10;;;;;;;8.23;5.13;;;25.90;99.90;;;;;;5069608;28;20200;-76
2023/06/07 11:28:39;;;;;;;9.85;5.30;;;25.80;99.90;;;;;;5074301;28;20205;-77
2023/06/07 11:31:13;;;;;;;11.65;5.15;;;25.80;99.90;;;;;;5077517;28;20227;-77
2023/06/07 11:33:42;;;;;;;9.60;4.85;;;25.70;99.90;;;;;;5060144;28;20268;-77
2023/06/07 11:36:10;;;;;;;10.77;5.18;;;25.60;99.90;;;;;;5079096;28;20203;-76
2023/06/07 11:38:39;;;;;;;11.10;4.85;;;25.70;99.90;;;;;;5080620;28;20216;-76
2023/06/07 11:41:06;;;;;;;11.50;5.72;;;26.00;99.90;;;;;;5080316;28;20257;-77
2023/06/07 11:43:33;;;;;;;14.10;4.78;;;26.00;99.90;;;;;;5062767;28;20656;-77
2023/06/07 11:46:02;;;;;;;9.15;4.75;;;26.20;99.90;;;;;;5077486;28;20234;-76
2023/06/07 11:48:30;;;;;;;9.18;4.55;;;26.30;99.90;;;;;;5060638;28;20303;-78
2023/06/07 11:51:01;;;;;;;8.20;5.20;;;26.40;99.90;;;;;;5079486;28;20641;-78
2023/06/07 11:53:31;;;;;;;11.65;5.60;;;26.30;99.90;;;;;;5081314;28;20214;-78
2023/06/07 11:56:02;;;;;;;10.00;5.28;;;26.40;99.90;;;;;;5062564;28;20208;-78
2023/06/07 11:58:30;;;;;;;10.82;4.45;;;26.40;99.90;;;;;;5067543;28;20599;-77
2023/06/07 12:00:58;;;;;;;8.73;4.07;;;26.80;99.90;;;;;;5076865;28;20665;-77
2023/06/07 12:03:26;;;;;;;6.70;4.28;;;26.70;99.90;;;;;;5073599;28;20254;-77
2023/06/07 12:05:54;;;;;;;8.35;5.10;;;26.80;99.90;;;;;;5078489;28;20646;-77
2023/06/07 12:08:31;;;;;;;8.57;4.30;;;26.90;99.90;;;;;;5076857;28;20545;-79
2023/06/07 12:10:58;;;;;;;6.88;3.63;;;27.00;99.90;;;;;;5079251;28;20218;-75
2023/06/07 12:13:25;;;;;;;9.23;4.30;;;26.90;99.90;;;;;;5075656;28;20204;-77
2023/06/07 12:15:51;;;;;;;9.60;4.50;;;26.80;99.90;;;;;;5083796;28;20577;-78
2023/06/07 12:18:22;;;;;;;10.68;4.88;;;26.70;99.90;;;;;;5076569;28;20240;-77
2023/06/07 12:21:04;;;;;;;8.32;4.72;;;26.60;99.90;;;;;;5078944;28;20200;-78
2023/06/07 12:23:31;;;;;;;8.40;4.88;;;26.50;99.90;;;;;;5079752;28;20195;-77
2023/06/07 12:26:14;;;;;;;8.38;3.75;;;26.40;99.90;;;;;;5081204;28;20216;-76
2023/06/07 12:28:43;;;;;;;9.55;3.97;;;26.40;99.90;;;;;;5061196;28;20208;-77
2023/06/07 12:31:19;;;;;;;10.10;4.60;;;26.40;99.90;;;;;;5064209;28;20680;-78
2023/06/07 12:33:58;;;;;;;8.43;4.05;;;26.50;99.90;;;;;;5081176;28;20204;-77
2023/06/07 12:36:30;;;;;;;11.73;4.68;;;26.50;99.90;;;;;;5068246;28;20259;-77
2023/06/07 12:39:05;;;;;;;9.68;4.47;;;26.40;99.90;;;;;;5065598;28;20212;-78
2023/06/07 12:41:33;;;;;;;8.73;4.55;;;26.40;99.90;;;;;;5081410;28;20214;-78
2023/06/07 12:44:06;;;;;;;10.07;4.43;;;26.30;99.90;;;;;;5070884;28;20224;-77
2023/06/07 12:46:33;;;;;;;8.70;4.70;;;26.30;99.90;;;;;;5084648;28;20215;-79
2023/06/07 12:49:01;;;;;;;12.98;4.70;;;26.20;99.90;;;;;;5081029;28;21072;-79